createdAt,value
2023-01-19T00:01:30.587Z,1.90
2023-01-19T00:03:58.836Z,1.90
2023-01-19T00:06:26.049Z,1.80
2023-01-19T00:08:53.046Z,0.70
2023-01-19T00:11:20.304Z,-0.40
2023-01-19T00:13:51.031Z,-1.40
2023-01-19T00:16:19.403Z,-2.20
2023-01-19T00:18:47.090Z,-2.80
2023-01-19T00:21:17.719Z,-3.30
2023-01-19T00:23:47.633Z,-3.80
2023-01-19T00:26:19.331Z,-4.10
2023-01-19T00:28:46.943Z,-4.40
2023-01-19T00:31:14.342Z,-4.50
2023-01-19T00:33:41.945Z,-4.70
2023-01-19T00:36:09.641Z,-4.80
2023-01-19T00:38:36.594Z,-4.90
2023-01-19T00:41:03.725Z,-4.90
2023-01-19T00:43:31.227Z,-5.00
2023-01-19T00:45:58.361Z,-5.00
2023-01-19T00:48:25.467Z,-5.10
2023-01-19T00:50:53.328Z,-5.10
2023-01-19T00:53:20.697Z,-5.20
2023-01-19T00:55:47.818Z,-5.20
2023-01-19T00:58:14.786Z,-5.30
2023-01-19T01:00:42.164Z,-5.30
2023-01-19T01:03:09.939Z,-5.30
2023-01-19T01:09:17.881Z,-4.80
2023-01-19T01:11:44.921Z,-2.90
2023-01-19T01:14:13.346Z,-3.30
2023-01-19T01:16:41.639Z,-4.00
2023-01-19T01:19:09.386Z,-4.50
2023-01-19T01:21:37.407Z,-4.80
2023-01-19T01:24:05.227Z,-4.90
2023-01-19T01:26:32.594Z,-5.00
2023-01-19T01:28:59.606Z,-5.10
2023-01-19T01:31:27.531Z,-5.20
2023-01-19T01:33:54.473Z,-5.30
2023-01-19T01:36:23.066Z,-5.40
2023-01-19T01:38:51.531Z,-5.50
2023-01-19T01:41:20.592Z,-5.60
2023-01-19T01:43:58.555Z,-5.70
2023-01-19T01:46:26.904Z,-5.70
2023-01-19T01:49:10.469Z,-5.80
2023-01-19T01:51:41.306Z,-5.80
2023-01-19T01:54:11.286Z,-5.80
2023-01-19T01:57:15.050Z,-5.90
2023-01-19T02:00:02.816Z,-5.90
2023-01-19T02:02:51.824Z,-6.00
2023-01-19T02:05:44.013Z,-6.00
2023-01-19T02:09:30.841Z,-6.00
2023-01-19T02:15:21.086Z,-4.50
2023-01-19T02:17:48.544Z,-3.30
2023-01-19T02:21:20.906Z,-2.70
2023-01-19T02:24:07.268Z,-2.20
2023-01-19T02:27:05.126Z,-1.80
2023-01-19T02:32:58.746Z,-1.10
2023-01-19T02:35:47.955Z,-0.80
2023-01-19T02:38:17.075Z,-0.60
2023-01-19T02:40:49.062Z,-0.40
2023-01-19T02:43:21.109Z,-0.30
2023-01-19T02:45:48.355Z,-0.20
2023-01-19T02:48:19.414Z,0.00
2023-01-19T02:51:09.967Z,0.10
2023-01-19T02:54:32.239Z,0.20
2023-01-19T02:57:17.605Z,0.30
2023-01-19T03:03:47.706Z,0.40
2023-01-19T03:06:39.570Z,0.40
2023-01-19T03:09:46.008Z,0.50
2023-01-19T03:12:52.248Z,0.50
2023-01-19T03:15:49.922Z,0.60
2023-01-19T03:18:36.536Z,0.70
2023-01-19T03:21:22.667Z,0.80
2023-01-19T03:24:19.971Z,0.80
2023-01-19T03:27:01.803Z,0.80
2023-01-19T03:29:45.347Z,0.90
2023-01-19T03:32:20.266Z,0.90
2023-01-19T03:34:49.512Z,0.90
2023-01-19T03:37:39.941Z,1.00
2023-01-19T03:40:07.986Z,1.00
2023-01-19T03:43:01.779Z,1.10
2023-01-19T03:45:31.486Z,1.00
2023-01-19T03:48:11.415Z,1.10
2023-01-19T03:50:56.591Z,1.10
2023-01-19T03:53:29.471Z,1.10
2023-01-19T03:56:22.200Z,1.10
2023-01-19T03:59:07.579Z,1.20
2023-01-19T04:01:38.487Z,1.20
2023-01-19T04:04:15.346Z,1.20
2023-01-19T04:06:55.432Z,1.20
2023-01-19T04:09:31.266Z,1.20
2023-01-19T04:12:07.334Z,1.20
2023-01-19T04:14:34.658Z,1.20
2023-01-19T04:17:08.106Z,1.20
2023-01-19T04:19:35.167Z,1.30
2023-01-19T04:22:18.771Z,1.30
2023-01-19T04:24:52.386Z,1.30
2023-01-19T04:27:29.271Z,1.30
2023-01-19T04:30:15.150Z,1.20
2023-01-19T04:32:59.947Z,1.20
2023-01-19T04:35:27.392Z,1.30
2023-01-19T04:41:25.628Z,1.20
2023-01-19T04:47:25.791Z,1.10
2023-01-19T04:50:09.571Z,1.10
2023-01-19T04:52:45.725Z,1.10
2023-01-19T04:55:44.542Z,1.20
2023-01-19T04:58:11.851Z,1.20
2023-01-19T05:00:44.556Z,1.20
2023-01-19T05:03:25.680Z,1.30
2023-01-19T05:08:51.590Z,1.40
2023-01-19T05:11:43.150Z,1.20
2023-01-19T05:14:10.466Z,1.30
2023-01-19T05:16:40.875Z,1.20
2023-01-19T05:19:08.459Z,1.30
2023-01-19T05:21:35.600Z,1.30
2023-01-19T05:24:08.234Z,1.30
2023-01-19T05:26:53.231Z,1.30
2023-01-19T05:29:20.211Z,1.40
2023-01-19T05:32:15.451Z,1.30
2023-01-19T05:34:57.582Z,1.40
2023-01-19T05:37:28.080Z,1.50
2023-01-19T05:40:03.790Z,1.40
2023-01-19T05:42:54.827Z,1.50
2023-01-19T05:45:37.371Z,1.50
2023-01-19T05:48:05.327Z,1.50
2023-01-19T05:50:44.976Z,1.50
2023-01-19T05:53:19.159Z,1.50
2023-01-19T05:55:59.895Z,1.50
2023-01-19T05:58:48.533Z,1.50
2023-01-19T06:04:17.889Z,1.50
2023-01-19T06:06:57.060Z,1.60
2023-01-19T06:10:01.846Z,1.60
2023-01-19T06:12:59.444Z,1.50
2023-01-19T06:15:50.776Z,1.50
2023-01-19T06:18:35.778Z,1.50
2023-01-19T06:21:15.894Z,1.50
2023-01-19T06:23:46.335Z,1.40
2023-01-19T06:29:16.860Z,1.50
2023-01-19T06:31:59.041Z,1.40
2023-01-19T06:34:32.853Z,1.40
2023-01-19T06:37:04.049Z,1.40
2023-01-19T06:39:34.866Z,1.40
2023-01-19T06:42:14.515Z,1.30
2023-01-19T06:44:51.708Z,1.40
2023-01-19T06:47:24.653Z,1.40
2023-01-19T06:50:04.087Z,1.40
2023-01-19T06:52:45.978Z,1.40
2023-01-19T06:55:14.251Z,1.40
2023-01-19T06:58:04.029Z,1.50
2023-01-19T07:00:52.571Z,1.50
2023-01-19T07:03:22.840Z,1.60
2023-01-19T07:06:02.705Z,1.70
2023-01-19T07:09:00.627Z,1.70
2023-01-19T07:11:46.106Z,1.60
2023-01-19T07:14:19.535Z,1.60
2023-01-19T07:17:09.031Z,1.70
2023-01-19T07:19:54.383Z,1.70
2023-01-19T07:22:30.106Z,1.70
2023-01-19T07:25:03.528Z,1.80
2023-01-19T07:27:55.341Z,1.80
2023-01-19T07:30:37.672Z,1.80
2023-01-19T07:33:07.847Z,1.70
2023-01-19T07:35:38.247Z,1.00
2023-01-19T07:38:14.313Z,0.00
2023-01-19T07:40:41.886Z,-1.00
2023-01-19T07:43:39.286Z,-1.60
2023-01-19T07:46:10.046Z,-1.30
2023-01-19T07:48:40.053Z,-1.60
2023-01-19T07:54:34.912Z,-2.20
2023-01-19T07:57:08.282Z,-2.50
2023-01-19T08:02:44.394Z,-3.20
2023-01-19T08:05:11.611Z,-3.70
2023-01-19T08:07:38.910Z,-4.00
2023-01-19T08:10:06.686Z,-4.30
2023-01-19T08:12:33.646Z,-4.60
2023-01-19T08:15:00.856Z,-4.70
2023-01-19T08:17:28.078Z,-4.50
2023-01-19T08:19:55.286Z,-4.40
2023-01-19T08:22:22.326Z,-4.30
2023-01-19T08:24:50.456Z,-4.10
2023-01-19T08:27:17.849Z,-3.90
2023-01-19T08:29:45.126Z,-4.20
2023-01-19T08:32:13.005Z,-4.40
2023-01-19T08:34:40.006Z,-4.50
2023-01-19T08:37:07.289Z,-4.60
2023-01-19T08:39:34.506Z,-4.60
2023-01-19T08:42:01.496Z,-4.70
2023-01-19T08:44:28.736Z,-4.90
2023-01-19T08:46:55.728Z,-4.80
2023-01-19T08:49:22.931Z,-4.60
2023-01-19T08:51:50.163Z,-4.30
2023-01-19T08:54:18.760Z,-3.80
2023-01-19T08:56:45.847Z,-4.10
2023-01-19T08:59:14.276Z,-4.40
2023-01-19T09:01:42.908Z,-4.50
2023-01-19T09:04:10.164Z,-4.00
2023-01-19T09:06:37.313Z,-3.60
2023-01-19T09:09:04.915Z,-3.00
2023-01-19T09:11:32.249Z,-2.10
2023-01-19T09:13:59.889Z,-1.30
2023-01-19T09:16:27.560Z,-0.70
2023-01-19T09:18:54.932Z,-0.20
2023-01-19T09:21:22.199Z,0.30
2023-01-19T09:23:49.936Z,0.70
2023-01-19T09:26:17.652Z,0.40
2023-01-19T09:28:44.569Z,-0.20
2023-01-19T09:31:12.000Z,-1.00
2023-01-19T09:33:39.131Z,-1.60
2023-01-19T09:36:06.607Z,-1.60
2023-01-19T09:38:34.503Z,-1.40
2023-01-19T09:41:01.864Z,-1.30
2023-01-19T09:43:48.371Z,-1.20
2023-01-19T09:46:39.199Z,-1.00
2023-01-19T09:49:15.756Z,-1.10
2023-01-19T09:51:47.434Z,-1.30
2023-01-19T09:54:39.494Z,-0.80
2023-01-19T09:57:11.369Z,-0.10
2023-01-19T09:59:39.085Z,0.60
2023-01-19T10:02:28.170Z,1.20
2023-01-19T10:05:24.373Z,1.70
2023-01-19T10:08:24.988Z,2.10
2023-01-19T10:10:58.108Z,2.40
2023-01-19T10:13:29.528Z,2.60
2023-01-19T10:16:17.774Z,2.70
2023-01-19T10:18:52.207Z,2.80
2023-01-19T10:21:32.032Z,2.80
2023-01-19T10:24:14.758Z,3.00
2023-01-19T10:27:04.091Z,3.00
2023-01-19T10:29:37.923Z,2.90
2023-01-19T10:32:23.241Z,3.00
2023-01-19T10:34:51.891Z,3.10
2023-01-19T10:37:27.990Z,3.20
2023-01-19T10:39:58.468Z,3.30
2023-01-19T10:42:31.051Z,3.40
2023-01-19T10:44:58.316Z,3.30
2023-01-19T10:47:34.641Z,3.20
2023-01-19T10:50:26.066Z,3.20
2023-01-19T10:52:59.645Z,3.30
2023-01-19T10:55:38.372Z,3.30
2023-01-19T10:58:07.442Z,3.20
2023-01-19T11:00:39.295Z,3.20
2023-01-19T11:03:22.606Z,3.20
2023-01-19T11:05:50.380Z,3.20
2023-01-19T11:08:29.213Z,3.30
2023-01-19T11:11:04.213Z,3.30
2023-01-19T11:13:32.576Z,3.30
2023-01-19T11:16:06.470Z,3.40
2023-01-19T11:18:36.976Z,3.40
2023-01-19T11:21:17.790Z,3.30
2023-01-19T11:23:51.876Z,3.40
2023-01-19T11:26:40.839Z,3.40
2023-01-19T11:29:25.688Z,3.40
2023-01-19T11:31:54.221Z,3.40
2023-01-19T11:34:37.132Z,3.40
2023-01-19T11:37:23.759Z,3.40
2023-01-19T11:39:56.487Z,3.40
2023-01-19T11:42:24.880Z,3.40
2023-01-19T11:45:02.188Z,3.50
2023-01-19T11:47:43.189Z,3.40
2023-01-19T11:50:25.320Z,3.40
2023-01-19T11:52:56.574Z,3.40
2023-01-19T11:55:35.452Z,3.40
2023-01-19T11:58:04.847Z,3.30
2023-01-19T12:00:43.331Z,3.30
2023-01-19T12:03:47.241Z,3.30
2023-01-19T12:06:26.136Z,3.20
2023-01-19T12:08:58.298Z,3.20
2023-01-19T12:11:34.838Z,3.20
2023-01-19T12:14:02.760Z,3.30
2023-01-19T12:16:33.325Z,3.30
2023-01-19T12:19:23.830Z,3.30
2023-01-19T12:21:52.877Z,3.30
2023-01-19T12:24:37.847Z,3.20
2023-01-19T12:27:15.854Z,3.00
2023-01-19T12:29:43.833Z,3.10
2023-01-19T12:32:14.013Z,3.20
2023-01-19T12:34:43.670Z,3.20
2023-01-19T12:37:34.238Z,3.20
2023-01-19T12:40:05.932Z,3.20
2023-01-19T12:42:34.220Z,3.20
2023-01-19T12:45:48.440Z,3.30
2023-01-19T12:48:27.125Z,3.40
2023-01-19T12:50:54.097Z,3.30
2023-01-19T12:53:22.939Z,3.40
2023-01-19T12:56:10.971Z,3.40
2023-01-19T12:58:38.205Z,3.50
2023-01-19T13:01:21.741Z,3.50
2023-01-19T13:04:03.789Z,3.50
2023-01-19T13:06:49.308Z,3.60
2023-01-19T13:09:37.336Z,3.60
2023-01-19T13:12:23.044Z,3.70
2023-01-19T13:14:50.988Z,3.90
2023-01-19T13:17:23.882Z,4.00
2023-01-19T13:19:57.245Z,3.80
2023-01-19T13:22:46.292Z,3.80
2023-01-19T13:25:21.295Z,4.00
2023-01-19T13:27:49.892Z,4.00
2023-01-19T13:30:19.756Z,4.10
2023-01-19T13:32:47.780Z,4.10
2023-01-19T13:35:19.091Z,4.10
2023-01-19T13:37:46.619Z,4.10
2023-01-19T13:40:24.661Z,4.10
2023-01-19T13:42:54.218Z,4.10
2023-01-19T13:45:33.718Z,3.90
2023-01-19T13:48:04.777Z,3.70
2023-01-19T13:50:35.001Z,3.70
2023-01-19T13:53:03.112Z,3.60
2023-01-19T13:55:31.548Z,3.50
2023-01-19T13:57:59.253Z,3.50
2023-01-19T14:00:29.213Z,3.40
2023-01-19T14:03:13.312Z,3.40
2023-01-19T14:05:45.397Z,3.30
2023-01-19T14:08:15.273Z,3.20
2023-01-19T14:11:02.489Z,3.20
2023-01-19T14:13:43.336Z,3.20
2023-01-19T14:16:17.770Z,3.10
2023-01-19T14:18:45.166Z,3.10
2023-01-19T14:21:14.339Z,3.00
2023-01-19T14:24:06.593Z,2.90
2023-01-19T14:27:07.661Z,3.00
2023-01-19T14:29:36.126Z,2.90
2023-01-19T14:32:17.736Z,2.90
2023-01-19T14:34:45.000Z,3.00
2023-01-19T14:37:28.425Z,2.90
2023-01-19T14:40:16.697Z,2.90
2023-01-19T14:42:53.052Z,2.90
2023-01-19T14:45:28.916Z,2.90
2023-01-19T14:48:03.018Z,2.80
2023-01-19T14:50:38.393Z,2.80
2023-01-19T14:53:28.780Z,2.70
2023-01-19T14:56:04.812Z,2.70
2023-01-19T14:58:34.705Z,2.60
2023-01-19T15:01:03.322Z,2.50
2023-01-19T15:03:44.730Z,1.00
2023-01-19T15:06:15.882Z,-0.50
2023-01-19T15:08:44.341Z,-1.80
2023-01-19T15:11:18.702Z,-2.60
2023-01-19T15:13:46.036Z,-3.20
2023-01-19T15:16:13.179Z,-3.00
2023-01-19T15:18:41.201Z,-3.30
2023-01-19T15:21:19.654Z,-3.80
2023-01-19T15:23:50.763Z,-4.40
2023-01-19T15:26:21.197Z,-4.70
2023-01-19T15:28:49.505Z,-5.00
2023-01-19T15:31:21.759Z,-5.30
2023-01-19T15:33:49.644Z,-5.50
2023-01-19T15:36:19.670Z,-5.60
2023-01-19T15:38:48.141Z,-5.70
2023-01-19T15:41:27.452Z,-5.80
2023-01-19T15:43:54.937Z,-5.90
2023-01-19T15:46:23.715Z,-5.80
2023-01-19T15:48:50.875Z,-5.90
2023-01-19T15:51:23.310Z,-6.00
2023-01-19T15:53:50.827Z,-6.10
2023-01-19T15:56:20.716Z,-6.10
2023-01-19T15:58:47.877Z,-6.20
2023-01-19T16:01:20.629Z,-6.30
2023-01-19T16:03:48.296Z,-6.20
2023-01-19T16:06:16.840Z,-6.30
2023-01-19T16:08:44.160Z,-6.40
2023-01-19T16:11:14.202Z,-6.40
2023-01-19T16:13:44.530Z,-5.70
2023-01-19T16:16:20.308Z,-4.30
2023-01-19T16:18:47.737Z,-4.50
2023-01-19T16:21:15.243Z,-5.10
2023-01-19T16:23:42.541Z,-5.50
2023-01-19T16:26:26.819Z,-5.70
2023-01-19T16:29:00.401Z,-5.90
2023-01-19T16:31:28.159Z,-6.00
2023-01-19T16:33:55.423Z,-6.10
2023-01-19T16:36:28.926Z,-6.20
2023-01-19T16:39:08.758Z,-6.30
2023-01-19T16:41:36.476Z,-6.30
2023-01-19T16:44:03.860Z,-6.50
2023-01-19T16:46:36.897Z,-6.50
2023-01-19T16:49:15.578Z,-6.60
2023-01-19T16:51:43.059Z,-6.50
2023-01-19T16:54:19.914Z,-6.50
2023-01-19T16:56:47.838Z,-6.20
2023-01-19T16:59:16.965Z,-5.30
2023-01-19T17:01:45.819Z,-4.20
2023-01-19T17:04:13.727Z,-3.40
2023-01-19T17:06:41.277Z,-2.80
2023-01-19T17:09:09.574Z,-2.30
2023-01-19T17:11:36.824Z,-2.00
2023-01-19T17:14:07.036Z,-1.80
2023-01-19T17:16:36.313Z,-1.50
2023-01-19T17:19:06.186Z,-1.30
2023-01-19T17:21:34.212Z,-1.10
2023-01-19T17:24:01.544Z,-0.90
2023-01-19T17:26:31.352Z,-0.80
2023-01-19T17:29:03.191Z,-0.80
2023-01-19T17:31:32.152Z,-0.70
2023-01-19T17:34:00.027Z,-0.60
2023-01-19T17:36:29.375Z,-0.50
2023-01-19T17:38:58.779Z,-0.50
2023-01-19T17:41:31.074Z,-0.50
2023-01-19T17:44:00.160Z,-0.40
2023-01-19T17:46:29.601Z,-0.30
2023-01-19T17:49:02.150Z,-0.30
2023-01-19T17:51:30.468Z,-0.20
2023-01-19T17:53:58.711Z,-0.20
2023-01-19T17:56:29.912Z,-0.10
2023-01-19T17:58:58.634Z,-0.20
2023-01-19T18:01:28.757Z,-0.20
2023-01-19T18:03:56.538Z,-0.30
2023-01-19T18:06:23.859Z,-0.40
2023-01-19T18:08:51.508Z,-1.10
2023-01-19T18:11:23.540Z,-2.40
2023-01-19T18:13:53.261Z,-3.30
2023-01-19T18:16:27.927Z,-3.90
2023-01-19T18:18:56.761Z,-4.20
2023-01-19T18:21:27.791Z,-4.50
2023-01-19T18:24:01.616Z,-4.60
2023-01-19T18:26:29.944Z,-4.80
2023-01-19T18:28:58.134Z,-4.50
2023-01-19T18:31:27.305Z,-4.00
2023-01-19T18:33:54.893Z,-3.40
2023-01-19T18:36:22.341Z,-2.90
2023-01-19T18:38:50.517Z,-2.60
2023-01-19T18:41:20.054Z,-2.30
2023-01-19T18:43:48.126Z,-2.10
2023-01-19T18:46:16.634Z,-1.90
2023-01-19T18:48:44.294Z,-1.80
2023-01-19T18:51:14.603Z,-1.60
2023-01-19T18:53:42.246Z,-1.50
2023-01-19T18:56:12.175Z,-1.40
2023-01-19T18:58:40.047Z,-1.20
2023-01-19T19:01:22.704Z,-1.10
2023-01-19T19:03:50.861Z,-1.00
2023-01-19T19:06:21.050Z,-0.90
2023-01-19T19:08:50.001Z,-0.90
2023-01-19T19:11:22.266Z,-0.80
2023-01-19T19:13:58.138Z,-0.80
2023-01-19T19:16:25.311Z,-0.80
2023-01-19T19:18:52.435Z,-0.80
2023-01-19T19:21:21.067Z,-0.80
2023-01-19T19:23:52.691Z,-0.70
2023-01-19T19:26:20.308Z,-0.70
2023-01-19T19:28:47.894Z,-0.50
2023-01-19T19:31:20.940Z,-0.50
2023-01-19T19:33:49.383Z,-0.40
2023-01-19T19:36:16.968Z,-0.40
2023-01-19T19:38:44.775Z,-0.30
2023-01-19T19:41:24.458Z,-0.20
2023-01-19T19:43:51.672Z,-0.20
2023-01-19T19:46:20.357Z,0.00
2023-01-19T19:48:49.095Z,0.00
2023-01-19T19:51:28.383Z,0.00
2023-01-19T19:53:59.078Z,0.00
2023-01-19T19:56:28.679Z,0.00
2023-01-19T19:58:58.018Z,0.10
2023-01-19T20:01:32.666Z,0.10
2023-01-19T20:04:07.355Z,0.10
2023-01-19T20:06:38.957Z,0.20
2023-01-19T20:09:10.823Z,0.20
2023-01-19T20:11:37.902Z,0.10
2023-01-19T20:14:07.111Z,0.10
2023-01-19T20:16:34.609Z,0.20
2023-01-19T20:19:02.151Z,0.20
2023-01-19T20:21:41.942Z,0.10
2023-01-19T20:24:18.496Z,0.10
2023-01-19T20:26:51.973Z,0.10
2023-01-19T20:29:19.930Z,0.20
2023-01-19T20:31:53.888Z,0.20
2023-01-19T20:34:24.061Z,0.30
2023-01-19T20:36:53.528Z,0.30
2023-01-19T20:39:22.615Z,0.30
2023-01-19T20:41:51.339Z,0.30
2023-01-19T20:44:24.800Z,0.30
2023-01-19T20:46:53.081Z,0.40
2023-01-19T20:49:20.539Z,0.30
2023-01-19T20:51:47.698Z,0.20
2023-01-19T20:54:17.515Z,0.10
2023-01-19T20:56:44.539Z,0.10
2023-01-19T20:59:12.595Z,0.00
2023-01-19T21:01:41.440Z,0.00
2023-01-19T21:04:09.797Z,0.10
2023-01-19T21:06:37.555Z,0.10
2023-01-19T21:09:04.856Z,0.00
2023-01-19T21:11:32.560Z,0.10
2023-01-19T21:14:01.780Z,0.00
2023-01-19T21:16:32.162Z,-0.10
2023-01-19T21:18:59.757Z,-0.20
2023-01-19T21:21:31.879Z,-0.10
2023-01-19T21:24:03.499Z,-0.10
2023-01-19T21:26:31.956Z,-0.10
2023-01-19T21:29:00.419Z,-0.10
2023-01-19T21:31:28.470Z,-0.10
2023-01-19T21:33:56.991Z,-0.20
2023-01-19T21:36:25.382Z,-0.10
2023-01-19T21:38:53.482Z,-0.20
2023-01-19T21:41:20.561Z,-0.20
2023-01-19T21:43:47.678Z,-0.20
2023-01-19T21:46:22.985Z,-0.10
2023-01-19T21:48:50.095Z,-0.20
2023-01-19T21:51:17.267Z,-0.20
2023-01-19T21:53:44.618Z,-0.20
2023-01-19T21:56:12.589Z,-0.30
2023-01-19T21:58:39.905Z,-0.40
2023-01-19T22:01:14.075Z,-0.50
2023-01-19T22:03:43.021Z,-0.50
2023-01-19T22:06:15.196Z,-0.40
2023-01-19T22:08:42.782Z,-0.30
2023-01-19T22:11:12.283Z,-0.30
2023-01-19T22:13:39.989Z,-0.40
2023-01-19T22:16:11.380Z,-0.60
2023-01-19T22:18:40.731Z,-1.60
2023-01-19T22:21:15.546Z,-2.90
2023-01-19T22:23:43.278Z,-4.10
2023-01-19T22:26:12.362Z,-4.80
2023-01-19T22:28:39.580Z,-5.30
2023-01-19T22:31:13.648Z,-5.60
2023-01-19T22:33:41.840Z,-6.00
2023-01-19T22:36:44.641Z,-6.30
2023-01-19T22:39:13.332Z,-6.50
2023-01-19T22:41:43.018Z,-6.60
2023-01-19T22:44:21.034Z,-6.70
2023-01-19T22:46:49.461Z,-6.90
2023-01-19T22:49:17.899Z,-7.00
2023-01-19T22:51:45.916Z,-7.00
2023-01-19T22:54:14.035Z,-7.10
2023-01-19T22:56:42.496Z,-7.20
2023-01-19T22:59:09.619Z,-7.20
2023-01-19T23:01:42.322Z,-7.30
2023-01-19T23:04:13.313Z,-7.30
2023-01-19T23:06:40.368Z,-7.40
2023-01-19T23:09:12.299Z,-7.50
2023-01-19T23:11:41.906Z,-7.50
2023-01-19T23:14:12.440Z,-7.40
2023-01-19T23:16:39.679Z,-7.50
2023-01-19T23:19:07.195Z,-7.50
2023-01-19T23:21:34.778Z,-7.50
2023-01-19T23:24:04.695Z,-6.00
2023-01-19T23:26:38.297Z,-4.80
2023-01-19T23:29:08.590Z,-5.30
2023-01-19T23:31:38.291Z,-6.10
2023-01-19T23:34:08.200Z,-6.70
2023-01-19T23:36:37.832Z,-6.80
2023-01-19T23:39:13.697Z,-6.90
2023-01-19T23:41:40.780Z,-7.20
2023-01-19T23:44:08.156Z,-7.30
2023-01-19T23:46:35.201Z,-7.40
2023-01-19T23:49:02.220Z,-7.40
2023-01-19T23:51:31.396Z,-7.50
2023-01-19T23:53:59.923Z,-7.50
2023-01-19T23:56:34.856Z,-7.50
2023-01-19T23:59:08.154Z,-7.50
